| time (UTC) | temp F | wind direction | speed knots | gust knots | rain 1hr in | rain 24hr in | rain mn in | humidity % | barometer mb |
| 20260506003015 | 65 | 61 | 0.9 | 5.2 | 0.00 | 0.00 | 0.00 | 81 | 1014.6 |
| 20260506002515 | 65 | 39 | 4.3 | 6.1 | 0.00 | 0.00 | 0.00 | 80 | 1014.5 |
| 20260506002016 | 65 | 10 | 1.7 | 6.1 | 0.00 | 0.00 | 0.00 | 81 | 1014.6 |
| 20260506001514 | 66 | 31 | 0.9 | 4.3 | 0.00 | 0.00 | 0.00 | 80 | 1014.6 |
| 20260506001016 | 66 | 32 | 2.6 | 5.2 | 0.00 | 0.00 | 0.00 | 80 | 1014.6 |
| 20260506000515 | 65 | 45 | 2.6 | 5.2 | 0.00 | 0.00 | 0.00 | 81 | 1014.7 |
| 20260506000011 | 65 | 349 | 1.7 | 7.0 | 0.00 | 0.00 | 0.00 | 80 | 1014.8 |
| 20260505235515 | 65 | 356 | 2.6 | 7.0 | 0.00 | 0.00 | 0.00 | 80 | 1014.8 |
| 20260505235015 | 65 | 20 | 2.6 | 7.0 | 0.00 | 0.00 | 0.00 | 81 | 1014.8 |
| 20260505234514 | 65 | 14 | 0.9 | 4.3 | 0.00 | 0.00 | 0.00 | 81 | 1014.8 |
| 20260505234015 | 65 | 68 | 4.3 | 6.1 | 0.00 | 0.00 | 0.00 | 81 | 1014.9 |
| 20260505233513 | 65 | 15 | 5.2 | 8.7 | 0.00 | 0.00 | 0.00 | 82 | 1014.9 |
| 20260505233015 | 66 | 17 | 4.3 | 8.7 | 0.00 | 0.00 | 0.00 | 81 | 1015.0 |
| 20260505232513 | 66 | 210 | 1.7 | 2.6 | 0.00 | 0.00 | 0.00 | 81 | 1015.0 |
| 20260505232013 | 65 | 183 | 0.0 | 2.6 | 0.00 | 0.00 | 0.00 | 83 | 1015.1 |
| 20260505231515 | 65 | 21 | 1.7 | 5.2 | 0.00 | 0.00 | 0.00 | 83 | 1015.1 |
| 20260505231014 | 64 | 61 | 3.5 | 7.0 | 0.00 | 0.00 | 0.00 | 83 | 1015.1 |
| 20260505230513 | 64 | 12 | 5.2 | 8.7 | 0.00 | 0.00 | 0.00 | 82 | 1015.1 |
| 20260505230014 | 65 | 26 | 4.3 | 6.1 | 0.00 | 0.00 | 0.00 | 81 | 1015.1 |
| 20260505225513 | 65 | 89 | 1.7 | 5.2 | 0.00 | 0.00 | 0.00 | 83 | 1015.2 |
| 20260505224515 | 64 | 42 | 2.6 | 5.2 | 0.00 | 0.00 | 0.00 | 83 | 1015.3 |
| 20260505224015 | 64 | 81 | 3.5 | 6.1 | 0.00 | 0.00 | 0.00 | 82 | 1015.4 |
| 20260505223514 | 64 | 45 | 0.9 | 4.3 | 0.00 | 0.00 | 0.00 | 84 | 1015.3 |
| 20260505223013 | 64 | 89 | 0.0 | 4.3 | 0.00 | 0.00 | 0.00 | 84 | 1015.3 |
| 20260505222513 | 64 | 79 | 0.9 | 2.6 | 0.00 | 0.00 | 0.00 | 85 | 1015.4 |
| 20260505222017 | 64 | 63 | 2.6 | 6.1 | 0.00 | 0.00 | 0.00 | 83 | 1015.4 |
| 20260505221514 | 64 | 33 | 0.9 | 5.2 | 0.00 | 0.00 | 0.00 | 84 | 1015.4 |
| 20260505221016 | 63 | 335 | 1.7 | 4.3 | 0.00 | 0.00 | 0.00 | 84 | 1015.5 |
| 20260505220014 | 63 | 33 | 1.7 | 2.6 | 0.00 | 0.00 | 0.00 | 86 | 1015.7 |
| 20260505215512 | 63 | 268 | 0.0 | 0.9 | 0.00 | 0.00 | 0.00 | 85 | 1015.8 |
| 20260505215013 | 63 | 287 | 0.0 | 0.9 | 0.00 | 0.00 | 0.00 | 85 | 1015.9 |
| 20260505214515 | 62 | 284 | 0.0 | 0.0 | 0.00 | 0.00 | 0.00 | 85 | 1015.9 |
| 20260505214015 | 62 | 284 | 0.0 | 1.7 | 0.00 | 0.00 | 0.00 | 86 | 1015.9 |
| 20260505213513 | 62 | 64 | 0.0 | 2.6 | 0.00 | 0.00 | 0.00 | 87 | 1015.9 |
| 20260505213016 | 62 | 23 | 2.6 | 4.3 | 0.00 | 0.00 | 0.00 | 87 | 1015.8 |
| 20260505212514 | 62 | 45 | 2.6 | 5.2 | 0.00 | 0.00 | 0.00 | 86 | 1015.9 |
| 20260505211017 | 61 | 35 | 0.9 | 2.6 | 0.00 | 0.00 | 0.00 | 88 | 1015.9 |
| 20260505210512 | 61 | 73 | 1.7 | 4.3 | 0.00 | 0.00 | 0.00 | 87 | 1015.9 |
| 20260505210014 | 61 | 15 | 2.6 | 4.3 | 0.00 | 0.00 | 0.00 | 87 | 1015.9 |
| 20260505205513 | 61 | 14 | 2.6 | 5.2 | 0.00 | 0.00 | 0.00 | 87 | 1016.0 |
| 20260505205015 | 62 | 342 | 0.0 | 2.6 | 0.00 | 0.00 | 0.00 | 88 | 1016.0 |
| 20260505204513 | 62 | 16 | 1.7 | 4.3 | 0.00 | 0.00 | 0.00 | 87 | 1016.1 |
| 20260505204015 | 62 | 306 | 0.9 | 5.2 | 0.00 | 0.00 | 0.00 | 87 | 1016.1 |
| 20260505203014 | 62 | 37 | 0.0 | 0.0 | 0.00 | 0.00 | 0.00 | 86 | 1016.0 |
| 20260505202514 | 62 | 37 | 0.0 | 0.0 | 0.00 | 0.00 | 0.00 | 87 | 1016.0 |
| 20260505201514 | 62 | 37 | 0.0 | 0.0 | 0.00 | 0.00 | 0.00 | 86 | 1016.2 |
| 20260505201016 | 62 | 37 | 0.0 | 0.0 | 0.00 | 0.00 | 0.00 | 86 | 1016.1 |
| 20260505200513 | 62 | 37 | 0.9 | 1.7 | 0.00 | 0.00 | 0.00 | 87 | 1016.2 |
| 20260505200013 | 61 | 196 | 0.0 | 0.0 | 0.00 | 0.00 | 0.00 | 86 | 1016.2 |
| 20260505195513 | 61 | 196 | 0.0 | 1.7 | 0.00 | 0.00 | 0.00 | 86 | 1016.2 |
| 20260505195014 | 62 | 124 | 0.0 | 0.0 | 0.00 | 0.00 | 0.00 | 85 | 1016.2 |
| 20260505194513 | 61 | 124 | 0.9 | 2.6 | 0.00 | 0.00 | 0.00 | 86 | 1016.1 |
| 20260505194015 | 61 | 23 | 0.0 | 0.0 | 0.00 | 0.00 | 0.00 | 86 | 1016.2 |
| 20260505193513 | 61 | 23 | 0.0 | 0.0 | 0.00 | 0.00 | 0.00 | 86 | 1016.2 |
| 20260505192514 | 61 | 23 | 0.0 | 0.0 | 0.00 | 0.00 | 0.00 | 87 | 1016.4 |
| 20260505192014 | 60 | 23 | 0.0 | 0.0 | 0.00 | 0.00 | 0.00 | 86 | 1016.3 |
| 20260505191512 | 60 | 23 | 0.0 | 0.9 | 0.00 | 0.00 | 0.00 | 88 | 1016.4 |
| 20260505190511 | 60 | 25 | 0.0 | 0.0 | 0.00 | 0.00 | 0.00 | 87 | 1016.3 |
| 20260505190015 | 60 | 25 | 0.0 | 4.3 | 0.00 | 0.00 | 0.00 | 88 | 1016.3 |
| 20260505185513 | 60 | 312 | 0.0 | 0.0 | 0.00 | 0.00 | 0.00 | 87 | 1016.2 |
| 20260505185015 | 60 | 312 | 0.9 | 2.6 | 0.00 | 0.00 | 0.00 | 88 | 1016.2 |
| 20260505184513 | 60 | 177 | 0.9 | 1.7 | 0.00 | 0.00 | 0.00 | 87 | 1016.2 |
| 20260505184015 | 60 | 123 | 0.0 | 0.9 | 0.00 | 0.00 | 0.00 | 88 | 1016.1 |
| 20260505183512 | 60 | 162 | 0.9 | 2.6 | 0.00 | 0.00 | 0.00 | 87 | 1016.1 |
| 20260505183014 | 60 | 138 | 0.9 | 2.6 | 0.00 | 0.00 | 0.00 | 88 | 1016.1 |
| 20260505182514 | 60 | 254 | 0.0 | 4.3 | 0.00 | 0.00 | 0.00 | 87 | 1016.1 |
| 20260505182014 | 60 | 79 | 0.9 | 4.3 | 0.00 | 0.00 | 0.00 | 89 | 1016.1 |
| 20260505181512 | 60 | 69 | 0.9 | 4.3 | 0.00 | 0.00 | 0.00 | 87 | 1016.1 |
| 20260505181014 | 60 | 173 | 1.7 | 5.2 | 0.00 | 0.00 | 0.00 | 88 | 1016.1 |
| 20260505180515 | 60 | 74 | 0.0 | 0.9 | 0.00 | 0.00 | 0.00 | 89 | 1016.1 |
| 20260505180015 | 60 | 75 | 0.0 | 1.7 | 0.00 | 0.00 | 0.00 | 88 | 1016.1 |
| 20260505175512 | 60 | 247 | 0.0 | 2.6 | 0.00 | 0.00 | 0.00 | 87 | 1016.1 |
| 20260505175015 | 60 | 240 | 0.0 | 2.6 | 0.00 | 0.00 | 0.00 | 88 | 1016.1 |
| 20260505174514 | 60 | 244 | 0.0 | 0.0 | 0.00 | 0.00 | 0.00 | 88 | 1016.1 |
| 20260505174014 | 60 | 244 | 0.0 | 0.0 | 0.00 | 0.00 | 0.00 | 90 | 1016.0 |
| 20260505173017 | 59 | 244 | 0.0 | 0.9 | 0.00 | 0.00 | 0.00 | 89 | 1016.0 |
| 20260505172014 | 59 | 181 | 0.0 | 2.6 | 0.00 | 0.00 | 0.00 | 90 | 1015.8 |
| 20260505171014 | 59 | 186 | 0.9 | 4.3 | 0.00 | 0.00 | 0.00 | 91 | 1015.9 |
| 20260505170513 | 59 | 246 | 0.9 | 1.7 | 0.00 | 0.00 | 0.00 | 91 | 1015.9 |
| 20260505170013 | 58 | 172 | 0.0 | 2.6 | 0.00 | 0.00 | 0.00 | 93 | 1015.9 |
| 20260505165514 | 58 | 116 | 0.0 | 2.6 | 0.00 | 0.00 | 0.00 | 92 | 1015.9 |
| 20260505165016 | 58 | 188 | 0.9 | 2.6 | 0.00 | 0.00 | 0.00 | 92 | 1015.9 |
| 20260505164513 | 58 | 161 | 0.9 | 1.7 | 0.00 | 0.00 | 0.00 | 92 | 1016.0 |
| 20260505163016 | 58 | 148 | 0.0 | 1.7 | 0.00 | 0.00 | 0.00 | 92 | 1015.9 |
| 20260505162515 | 58 | 169 | 0.9 | 0.9 | 0.00 | 0.00 | 0.00 | 92 | 1015.9 |
| 20260505162013 | 58 | 187 | 0.0 | 0.9 | 0.00 | 0.00 | 0.00 | 93 | 1015.9 |
| 20260505161515 | 58 | 185 | 0.9 | 1.7 | 0.00 | 0.00 | 0.00 | 93 | 1015.8 |
| 20260505161017 | 58 | 171 | 0.0 | 0.9 | 0.00 | 0.00 | 0.00 | 94 | 1015.8 |
| 20260505160512 | 58 | 165 | 0.0 | 1.7 | 0.00 | 0.00 | 0.00 | 94 | 1015.8 |
| 20260505153016 | 56 | 100 | 0.0 | 0.0 | 0.00 | 0.00 | 0.00 | 96 | 1015.8 |
| 20260505152513 | 56 | 100 | 0.0 | 0.0 | 0.00 | 0.00 | 0.00 | 97 | 1015.8 |
| 20260505152016 | 56 | 100 | 0.0 | 0.0 | 0.00 | 0.00 | 0.00 | 97 | 1015.8 |
| 20260505151514 | 56 | 100 | 0.0 | 0.0 | 0.00 | 0.00 | 0.00 | 97 | 1015.7 |
| 20260505151016 | 56 | 100 | 0.0 | 0.0 | 0.00 | 0.00 | 0.00 | 97 | 1015.8 |
| 20260505150512 | 56 | 100 | 0.0 | 0.0 | 0.00 | 0.00 | 0.00 | 97 | 1015.7 |
| 20260505140513 | 55 | 100 | 0.0 | 0.0 | 0.00 | 0.00 | 0.00 | 98 | 1015.3 |
| 20260505124015 | 55 | 144 | 0.0 | 0.0 | 0.00 | 0.00 | 0.00 | 97 | 1014.7 |
| 20260505123514 | 55 | 144 | 0.0 | 0.0 | 0.00 | 0.00 | 0.00 | 97 | 1014.7 |
| 20260505123014 | 55 | 144 | 0.0 | 0.0 | 0.00 | 0.00 | 0.00 | 97 | 1014.7 |
| 20260505122514 | 55 | 144 | 0.0 | 0.0 | 0.00 | 0.00 | 0.00 | 97 | 1014.6 |
| 20260505122014 | 55 | 144 | 0.0 | 0.0 | 0.00 | 0.00 | 0.00 | 97 | 1014.7 |
| 20260505121513 | 55 | 144 | 0.0 | 0.0 | 0.00 | 0.00 | 0.00 | 97 | 1014.6 |
| 20260505121016 | 55 | 144 | 0.0 | 0.0 | 0.00 | 0.00 | 0.00 | 97 | 1014.7 |
| 20260505120513 | 55 | 144 | 0.0 | 0.0 | 0.00 | 0.00 | 0.00 | 97 | 1014.6 |
| 20260505120013 | 55 | 144 | 0.0 | 0.0 | 0.00 | 0.00 | 0.00 | 97 | 1014.6 |
| 20260505115513 | 55 | 144 | 0.0 | 0.0 | 0.00 | 0.00 | 0.00 | 97 | 1014.5 |
| 20260505114513 | 55 | 144 | 0.0 | 0.0 | 0.00 | 0.00 | 0.00 | 98 | 1014.5 |
| 20260505114014 | 55 | 144 | 0.0 | 0.0 | 0.00 | 0.00 | 0.00 | 98 | 1014.5 |
| 20260505113015 | 55 | 127 | 0.0 | 0.9 | 0.00 | 0.00 | 0.00 | 98 | 1014.5 |
| 20260505112513 | 55 | 148 | 0.0 | 0.9 | 0.00 | 0.00 | 0.00 | 98 | 1014.5 |
| 20260505112016 | 55 | 151 | 0.0 | 1.7 | 0.00 | 0.00 | 0.00 | 98 | 1014.5 |
| 20260505111014 | 55 | 174 | 0.0 | 0.0 | 0.00 | 0.00 | 0.00 | 98 | 1014.5 |
| 20260505110511 | 55 | 174 | 0.0 | 0.0 | 0.00 | 0.00 | 0.00 | 98 | 1014.4 |
| 20260505102014 | 55 | 174 | 0.0 | 0.0 | 0.00 | 0.00 | 0.00 | 98 | 1014.2 |
| 20260505101014 | 55 | 174 | 0.0 | 0.0 | 0.00 | 0.00 | 0.00 | 98 | 1014.1 |
| 20260505100515 | 55 | 174 | 0.0 | 0.0 | 0.00 | 0.00 | 0.00 | 98 | 1014.2 |
| 20260505100014 | 55 | 174 | 0.0 | 0.0 | 0.00 | 0.00 | 0.00 | 98 | 1014.2 |
| 20260505095513 | 55 | 174 | 0.0 | 0.0 | 0.00 | 0.00 | 0.00 | 98 | 1014.1 |
| 20260505095015 | 55 | 174 | 0.0 | 0.0 | 0.00 | 0.00 | 0.00 | 98 | 1014.1 |
| 20260505094514 | 55 | 174 | 0.0 | 0.0 | 0.00 | 0.00 | 0.00 | 97 | 1014.1 |
| 20260505094015 | 55 | 174 | 0.0 | 0.0 | 0.00 | 0.00 | 0.00 | 97 | 1014.1 |
| 20260505093512 | 55 | 174 | 0.0 | 0.0 | 0.00 | 0.00 | 0.00 | 97 | 1014.0 |
| 20260505093015 | 55 | 174 | 0.0 | 0.0 | 0.00 | 0.00 | 0.00 | 97 | 1014.0 |
| 20260505092513 | 55 | 174 | 0.0 | 0.9 | 0.00 | 0.00 | 0.00 | 97 | 1014.0 |
| 20260505092015 | 55 | 161 | 0.0 | 0.0 | 0.00 | 0.00 | 0.00 | 97 | 1014.0 |
| 20260505091512 | 55 | 161 | 0.0 | 1.7 | 0.00 | 0.00 | 0.00 | 97 | 1014.0 |
| 20260505091015 | 55 | 202 | 0.0 | 0.0 | 0.00 | 0.00 | 0.00 | 97 | 1014.0 |
| 20260505090513 | 55 | 202 | 0.0 | 0.0 | 0.00 | 0.00 | 0.00 | 96 | 1013.9 |
| 20260505090013 | 55 | 202 | 0.0 | 0.0 | 0.00 | 0.00 | 0.00 | 96 | 1013.9 |
| 20260505085513 | 55 | 202 | 0.0 | 0.0 | 0.00 | 0.00 | 0.00 | 96 | 1013.9 |
| 20260505084016 | 55 | 202 | 0.0 | 1.7 | 0.00 | 0.00 | 0.00 | 96 | 1013.7 |
| 20260505083513 | 55 | 226 | 0.0 | 1.7 | 0.00 | 0.00 | 0.00 | 96 | 1013.8 |
| 20260505083016 | 55 | 226 | 0.9 | 2.6 | 0.00 | 0.00 | 0.00 | 96 | 1013.9 |
| 20260505082016 | 55 | 234 | 0.9 | 2.6 | 0.00 | 0.00 | 0.00 | 96 | 1013.8 |
| 20260505081514 | 55 | 238 | 1.7 | 4.3 | 0.00 | 0.00 | 0.00 | 96 | 1013.8 |
| 20260505081017 | 55 | 225 | 0.9 | 2.6 | 0.00 | 0.00 | 0.00 | 96 | 1013.8 |
| 20260505080512 | 55 | 198 | 0.9 | 1.7 | 0.00 | 0.00 | 0.00 | 96 | 1013.8 |
| 20260505080011 | 55 | 270 | 0.0 | 0.0 | 0.00 | 0.00 | 0.00 | 96 | 1013.8 |
| 20260505075512 | 55 | 270 | 0.0 | 0.0 | 0.00 | 0.00 | 0.00 | 96 | 1013.8 |
| 20260505075015 | 55 | 270 | 0.0 | 2.6 | 0.00 | 0.00 | 0.00 | 96 | 1013.8 |
| 20260505074514 | 55 | 216 | 0.0 | 1.7 | 0.00 | 0.00 | 0.00 | 96 | 1013.7 |
| 20260505074015 | 55 | 235 | 0.9 | 4.3 | 0.00 | 0.00 | 0.00 | 97 | 1013.7 |
| 20260505073511 | 55 | 241 | 0.0 | 0.0 | 0.00 | 0.00 | 0.00 | 97 | 1013.7 |
| 20260505073016 | 55 | 241 | 0.9 | 2.6 | 0.00 | 0.00 | 0.00 | 97 | 1013.6 |
| 20260505072515 | 55 | 239 | 0.9 | 2.6 | 0.00 | 0.00 | 0.00 | 97 | 1013.6 |
| 20260505072016 | 55 | 242 | 0.0 | 1.7 | 0.00 | 0.00 | 0.00 | 97 | 1013.5 |
| 20260505071513 | 54 | 223 | 0.0 | 0.0 | 0.00 | 0.00 | 0.00 | 97 | 1013.6 |
| 20260505070513 | 55 | 202 | 0.0 | 0.0 | 0.00 | 0.00 | 0.00 | 97 | 1013.5 |
| 20260505070014 | 55 | 202 | 0.0 | 1.7 | 0.00 | 0.00 | 0.00 | 97 | 1013.5 |
| 20260505065514 | 54 | 213 | 0.9 | 2.6 | 0.00 | 0.00 | 0.00 | 97 | 1013.4 |
| 20260505065016 | 54 | 171 | 0.9 | 2.6 | 0.00 | 0.00 | 0.00 | 97 | 1013.5 |
| 20260505064514 | 54 | 222 | 0.0 | 2.6 | 0.00 | 0.00 | 0.00 | 97 | 1013.4 |
| 20260505064018 | 54 | 233 | 1.7 | 1.7 | 0.00 | 0.00 | 0.00 | 97 | 1013.4 |
| 20260505063513 | 54 | 224 | 0.9 | 1.7 | 0.00 | 0.00 | 0.00 | 97 | 1013.4 |
| 20260505063016 | 54 | 220 | 0.9 | 2.6 | 0.00 | 0.00 | 0.00 | 97 | 1013.4 |
| 20260505062513 | 54 | 200 | 0.9 | 1.7 | 0.00 | 0.00 | 0.00 | 98 | 1013.4 |
| 20260505062014 | 54 | 235 | 0.9 | 2.6 | 0.00 | 0.00 | 0.00 | 98 | 1013.4 |
| 20260505061514 | 54 | 233 | 0.9 | 2.6 | 0.00 | 0.00 | 0.00 | 98 | 1013.4 |
| 20260505061015 | 54 | 222 | 0.0 | 0.0 | 0.00 | 0.00 | 0.00 | 98 | 1013.3 |
| 20260505060515 | 54 | 222 | 0.0 | 0.0 | 0.00 | 0.00 | 0.00 | 98 | 1013.3 |
| 20260505060014 | 54 | 222 | 0.0 | 0.0 | 0.00 | 0.00 | 0.00 | 97 | 1013.3 |
| 20260505055512 | 54 | 222 | 0.0 | 0.0 | 0.00 | 0.00 | 0.00 | 97 | 1013.4 |
| 20260505055015 | 54 | 222 | 0.0 | 0.0 | 0.00 | 0.00 | 0.00 | 97 | 1013.3 |
| 20260505054512 | 54 | 222 | 0.0 | 0.0 | 0.00 | 0.00 | 0.00 | 97 | 1013.3 |
| 20260505053513 | 54 | 222 | 0.0 | 0.0 | 0.00 | 0.00 | 0.00 | 97 | 1013.2 |
| 20260505053015 | 54 | 222 | 0.0 | 0.0 | 0.00 | 0.00 | 0.00 | 97 | 1013.2 |
| 20260505052520 | 54 | 222 | 0.0 | 0.0 | 0.00 | 0.00 | 0.00 | 97 | 1013.2 |
| 20260505052017 | 54 | 222 | 0.0 | 0.0 | 0.00 | 0.00 | 0.00 | 96 | 1013.1 |
| 20260505051515 | 54 | 222 | 0.0 | 0.0 | 0.00 | 0.00 | 0.00 | 96 | 1013.1 |
| 20260505051015 | 55 | 222 | 0.0 | 0.0 | 0.00 | 0.00 | 0.00 | 96 | 1013.1 |
| 20260505050513 | 55 | 222 | 0.0 | 0.0 | 0.00 | 0.00 | 0.00 | 96 | 1013.0 |
| 20260505041512 | 56 | 183 | 0.0 | 1.7 | 0.00 | 0.00 | 0.00 | 95 | 1012.3 |
| 20260505041014 | 57 | 240 | 0.0 | 0.0 | 0.00 | 0.00 | 0.00 | 95 | 1012.2 |
| 20260505040517 | 57 | 240 | 0.0 | 0.0 | 0.00 | 0.00 | 0.00 | 94 | 1012.1 |
| 20260505035513 | 58 | 150 | 0.0 | 0.0 | 0.00 | 0.00 | 0.00 | 93 | 1011.9 |
| 20260505035016 | 58 | 150 | 0.0 | 0.0 | 0.00 | 0.00 | 0.00 | 93 | 1011.9 |
| 20260505034511 | 58 | 150 | 0.0 | 0.0 | 0.00 | 0.00 | 0.00 | 92 | 1011.8 |
| 20260505033513 | 59 | 185 | 0.9 | 1.7 | 0.00 | 0.00 | 0.00 | 91 | 1011.7 |
| 20260505033014 | 60 | 215 | 0.0 | 0.0 | 0.00 | 0.00 | 0.00 | 90 | 1011.6 |
| 20260505032515 | 60 | 215 | 0.0 | 0.0 | 0.00 | 0.00 | 0.00 | 89 | 1011.5 |
| 20260505032015 | 61 | 215 | 0.0 | 0.0 | 0.00 | 0.00 | 0.00 | 88 | 1011.3 |
| 20260505031015 | 62 | 186 | 0.0 | 0.0 | 0.00 | 0.00 | 0.00 | 87 | 1011.1 |
| 20260505030511 | 62 | 186 | 0.0 | 0.9 | 0.00 | 0.00 | 0.00 | 86 | 1011.1 |
| 20260505030014 | 63 | 241 | 0.0 | 0.0 | 0.00 | 0.00 | 0.00 | 85 | 1011.0 |
| 20260505025512 | 63 | 241 | 0.0 | 0.0 | 0.00 | 0.00 | 0.00 | 84 | 1011.0 |
| 20260505024512 | 64 | 242 | 0.0 | 2.6 | 0.00 | 0.00 | 0.00 | 83 | 1010.8 |
| 20260505024014 | 64 | 228 | 0.0 | 1.7 | 0.00 | 0.00 | 0.00 | 82 | 1010.8 |
| 20260505023514 | 64 | 195 | 0.0 | 1.7 | 0.00 | 0.00 | 0.00 | 82 | 1010.8 |
| 20260505023016 | 65 | 220 | 0.9 | 2.6 | 0.00 | 0.00 | 0.00 | 82 | 1010.8 |
| 20260505022514 | 65 | 210 | 0.9 | 2.6 | 0.00 | 0.00 | 0.00 | 82 | 1010.7 |
| 20260505022014 | 65 | 231 | 1.7 | 2.6 | 0.00 | 0.00 | 0.00 | 81 | 1010.6 |
| 20260505021512 | 66 | 228 | 1.7 | 5.2 | 0.00 | 0.00 | 0.00 | 80 | 1010.7 |
| 20260505021015 | 67 | 235 | 0.9 | 4.3 | 0.00 | 0.00 | 0.00 | 79 | 1010.6 |
| 20260505020513 | 67 | 224 | 0.9 | 2.6 | 0.00 | 0.00 | 0.00 | 77 | 1010.6 |
| 20260505020012 | 68 | 230 | 0.0 | 2.6 | 0.00 | 0.00 | 0.00 | 77 | 1010.6 |
| 20260505015513 | 68 | 216 | 0.9 | 4.3 | 0.00 | 0.00 | 0.00 | 76 | 1010.6 |
| 20260505015014 | 68 | 229 | 1.7 | 4.3 | 0.00 | 0.00 | 0.00 | 76 | 1010.6 |
| 20260505014514 | 69 | 306 | 0.9 | 4.3 | 0.00 | 0.00 | 0.00 | 75 | 1010.6 |
| 20260505014014 | 69 | 259 | 1.7 | 4.3 | 0.00 | 0.00 | 0.00 | 74 | 1010.6 |
| 20260505013513 | 70 | 284 | 1.7 | 7.0 | 0.00 | 0.00 | 0.00 | 74 | 1010.6 |
| 20260505012514 | 70 | 244 | 0.9 | 4.3 | 0.00 | 0.00 | 0.00 | 74 | 1010.7 |
| 20260505011514 | 71 | 231 | 0.9 | 6.1 | 0.00 | 0.00 | 0.00 | 73 | 1010.8 |
| 20260505011014 | 71 | 239 | 0.9 | 2.6 | 0.00 | 0.00 | 0.00 | 73 | 1010.8 |
| 20260505010513 | 71 | 217 | 1.7 | 4.3 | 0.00 | 0.00 | 0.00 | 72 | 1010.8 |
| 20260505005511 | 72 | 231 | 1.7 | 5.2 | 0.00 | 0.00 | 0.00 | 72 | 1010.8 |
| 20260505005014 | 72 | 238 | 1.7 | 2.6 | 0.00 | 0.00 | 0.00 | 72 | 1010.8 |
| 20260505004016 | 72 | 213 | 0.9 | 1.7 | 0.00 | 0.00 | 0.00 | 72 | 1010.8 |
| 20260505003513 | 72 | 211 | 0.9 | 2.6 | 0.00 | 0.00 | 0.00 | 73 | 1010.8 |